createdAt,value
2022-09-01T00:00:02.315Z,2.47
2022-09-01T00:02:30.380Z,3.00
2022-09-01T00:04:58.816Z,3.40
2022-09-01T00:07:27.323Z,3.03
2022-09-01T00:09:54.513Z,3.20
2022-09-01T00:12:22.830Z,2.75
2022-09-01T00:14:50.028Z,2.88
2022-09-01T00:17:17.186Z,3.10
2022-09-01T00:19:44.602Z,3.20
2022-09-01T00:22:11.836Z,2.97
2022-09-01T00:24:39.057Z,3.20
2022-09-01T00:27:06.229Z,3.20
2022-09-01T00:29:33.408Z,3.35
2022-09-01T00:32:00.538Z,3.65
2022-09-01T00:34:27.737Z,3.33
2022-09-01T00:36:54.905Z,3.53
2022-09-01T00:39:22.119Z,3.35
2022-09-01T00:41:50.793Z,4.00
2022-09-01T00:44:19.653Z,3.28
2022-09-01T00:46:50.968Z,3.85
2022-09-01T00:49:28.969Z,3.70
2022-09-01T00:52:19.978Z,3.85
2022-09-01T00:54:49.968Z,3.85
2022-09-01T00:57:17.365Z,4.35
2022-09-01T00:59:47.403Z,4.53
2022-09-01T01:02:14.805Z,4.03
2022-09-01T01:04:43.787Z,4.30
2022-09-01T01:07:11.633Z,3.95
2022-09-01T01:09:40.729Z,4.68
2022-09-01T01:12:11.793Z,3.85
2022-09-01T01:14:40.087Z,4.65
2022-09-01T01:17:07.616Z,4.22
2022-09-01T01:19:53.522Z,4.15
2022-09-01T01:22:42.372Z,4.70
2022-09-01T01:25:12.909Z,5.22
2022-09-01T01:27:43.797Z,4.65
2022-09-01T01:30:12.662Z,4.60
2022-09-01T01:32:43.913Z,5.22
2022-09-01T01:35:15.111Z,5.05
2022-09-01T01:37:46.665Z,5.03
2022-09-01T01:40:15.912Z,4.60
2022-09-01T01:42:48.081Z,4.85
2022-09-01T01:45:17.343Z,4.32
2022-09-01T01:47:51.706Z,4.72
2022-09-01T01:50:18.930Z,4.10
2022-09-01T01:52:46.167Z,4.97
2022-09-01T01:55:13.634Z,4.07
2022-09-01T01:57:50.066Z,4.55
2022-09-01T02:00:30.537Z,4.40
2022-09-01T02:02:58.158Z,4.97
2022-09-01T02:05:30.235Z,4.43
2022-09-01T02:08:00.039Z,4.38
2022-09-01T02:10:29.603Z,4.82
2022-09-01T02:12:58.119Z,5.07
2022-09-01T02:15:25.574Z,5.50
2022-09-01T02:17:53.330Z,5.00
2022-09-01T02:20:23.146Z,4.40
2022-09-01T02:22:52.027Z,5.32
2022-09-01T02:25:23.602Z,5.53
2022-09-01T02:27:55.562Z,5.03
2022-09-01T02:30:26.633Z,5.10
2022-09-01T02:32:53.786Z,5.43
2022-09-01T02:35:21.010Z,5.40
2022-09-01T02:37:51.551Z,5.43
2022-09-01T02:40:18.758Z,5.20
2022-09-01T02:42:48.042Z,5.68
2022-09-01T02:45:16.345Z,5.57
2022-09-01T02:47:46.652Z,5.32
2022-09-01T02:50:17.116Z,6.10
2022-09-01T02:52:45.258Z,6.20
2022-09-01T02:55:12.765Z,5.25
2022-09-01T02:57:40.024Z,5.35
2022-09-01T03:00:20.858Z,5.38
2022-09-01T03:02:52.176Z,6.05
2022-09-01T03:05:25.354Z,5.70
2022-09-01T03:07:56.559Z,5.53
2022-09-01T03:10:36.264Z,5.72
2022-09-01T03:13:05.104Z,5.55
2022-09-01T03:15:34.100Z,5.47
2022-09-01T03:18:02.717Z,5.20
2022-09-01T03:20:31.228Z,5.07
2022-09-01T03:22:59.207Z,5.22
2022-09-01T03:25:28.847Z,6.05
2022-09-01T03:27:56.085Z,5.18
2022-09-01T03:30:23.914Z,6.20
2022-09-01T03:32:51.004Z,5.53
2022-09-01T03:35:18.248Z,5.68
2022-09-01T03:37:45.593Z,5.75
2022-09-01T03:40:13.674Z,4.93
2022-09-01T03:42:41.084Z,6.07
2022-09-01T03:45:09.213Z,5.00
2022-09-01T03:47:40.164Z,5.70
2022-09-01T03:50:21.341Z,5.43
2022-09-01T03:52:57.906Z,5.88
2022-09-01T03:55:27.361Z,14.38
2022-09-01T03:57:55.860Z,10.55
2022-09-01T04:00:24.138Z,9.02
2022-09-01T04:02:56.217Z,7.85
2022-09-01T04:05:25.132Z,7.82
2022-09-01T04:07:52.720Z,7.80
2022-09-01T04:10:19.888Z,9.02
2022-09-01T04:12:46.998Z,8.68
2022-09-01T04:15:15.278Z,7.30
2022-09-01T04:18:01.097Z,6.38
2022-09-01T04:20:29.190Z,6.57
2022-09-01T04:22:58.023Z,6.45
2022-09-01T04:25:26.838Z,6.07
2022-09-01T04:27:58.931Z,7.53
2022-09-01T04:30:29.393Z,6.35
2022-09-01T04:32:56.948Z,6.50
2022-09-01T04:35:36.265Z,6.90
2022-09-01T04:38:08.351Z,7.40
2022-09-01T04:40:39.666Z,7.25
2022-09-01T04:43:07.808Z,7.05
2022-09-01T04:45:38.256Z,6.68
2022-09-01T04:48:06.048Z,5.90
2022-09-01T04:50:34.917Z,7.05
2022-09-01T04:53:03.260Z,7.20
2022-09-01T04:55:32.912Z,7.13
2022-09-01T04:58:08.360Z,6.78
2022-09-01T05:00:38.927Z,6.50
2022-09-01T05:03:06.063Z,7.10
2022-09-01T05:05:43.058Z,6.93
2022-09-01T05:08:23.649Z,5.93
2022-09-01T05:10:55.576Z,6.82
2022-09-01T05:13:23.737Z,7.45
2022-09-01T05:16:01.921Z,8.02
2022-09-01T05:18:29.725Z,8.43
2022-09-01T05:20:57.566Z,8.68
2022-09-01T05:23:26.659Z,10.70
2022-09-01T05:25:54.900Z,9.70
2022-09-01T05:28:27.120Z,9.02
2022-09-01T05:30:54.681Z,9.57
2022-09-01T05:33:22.185Z,11.60
2022-09-01T05:35:55.540Z,14.93
2022-09-01T05:38:24.236Z,40.10
2022-09-01T05:41:07.185Z,35.17
2022-09-01T05:43:34.293Z,38.63
2022-09-01T05:46:07.004Z,27.67
2022-09-01T05:48:39.855Z,28.90
2022-09-01T05:51:22.226Z,26.98
2022-09-01T05:53:55.878Z,13.95
2022-09-01T05:56:24.124Z,10.40
2022-09-01T06:01:41.101Z,6.30
2022-09-01T06:04:10.053Z,6.05
2022-09-01T06:07:05.802Z,6.57
2022-09-01T06:09:38.388Z,9.27
2022-09-01T06:12:05.779Z,11.93
2022-09-01T06:14:33.105Z,9.60
2022-09-01T06:17:01.083Z,9.80
2022-09-01T06:19:30.042Z,7.47
2022-09-01T06:21:58.595Z,7.65
2022-09-01T06:24:25.705Z,6.53
2022-09-01T06:26:54.940Z,5.93
2022-09-01T06:29:22.309Z,6.65
2022-09-01T06:31:52.734Z,6.43
2022-09-01T06:34:20.552Z,5.60
2022-09-01T06:36:49.657Z,5.88
2022-09-01T06:39:20.418Z,5.45
2022-09-01T06:41:52.964Z,4.78
2022-09-01T06:44:23.154Z,4.38
2022-09-01T06:46:51.999Z,4.50
2022-09-01T06:49:21.434Z,4.35
2022-09-01T06:51:49.743Z,3.92
2022-09-01T06:54:20.729Z,3.78
2022-09-01T06:56:51.826Z,4.57
2022-09-01T06:59:35.437Z,3.42
2022-09-01T07:02:04.801Z,3.05
2022-09-01T07:04:33.214Z,3.53
2022-09-01T07:07:54.209Z,3.67
2022-09-01T07:10:06.264Z,3.70
2022-09-01T07:13:04.816Z,3.47
2022-09-01T07:18:17.615Z,3.30
2022-09-01T07:21:05.454Z,4.13
2022-09-01T07:26:26.395Z,3.53
2022-09-01T07:29:01.129Z,3.63
2022-09-01T07:39:52.143Z,2.67
2022-09-01T07:45:27.369Z,2.83
2022-09-01T07:47:55.534Z,2.90
2022-09-01T07:53:19.590Z,2.50
2022-09-01T07:55:49.986Z,2.53
2022-09-01T07:58:18.191Z,2.45
2022-09-01T08:00:46.564Z,2.15
2022-09-01T08:03:17.682Z,2.97
2022-09-01T08:05:45.268Z,2.60
2022-09-01T08:08:29.140Z,2.33
2022-09-01T08:11:04.322Z,2.72
2022-09-01T08:13:38.808Z,3.20
2022-09-01T08:16:16.257Z,2.95
2022-09-01T08:18:48.779Z,3.10
2022-09-01T08:21:17.342Z,3.10
2022-09-01T08:23:44.489Z,2.60
2022-09-01T08:26:13.822Z,2.63
2022-09-01T08:28:45.951Z,2.78
2022-09-01T08:31:14.682Z,2.30
2022-09-01T08:33:42.673Z,2.00
2022-09-01T08:36:13.096Z,2.53
2022-09-01T08:38:40.969Z,2.45
2022-09-01T08:41:35.141Z,2.30
2022-09-01T08:44:15.386Z,1.88
2022-09-01T08:46:43.731Z,1.20
2022-09-01T08:49:26.186Z,1.85
2022-09-01T08:52:16.640Z,1.70
2022-09-01T08:54:53.035Z,1.15
2022-09-01T08:57:47.786Z,1.58
2022-09-01T09:00:16.242Z,1.40
2022-09-01T09:02:51.920Z,1.40
2022-09-01T09:05:32.123Z,1.10
2022-09-01T09:08:08.110Z,1.27
2022-09-01T09:10:54.125Z,1.13
2022-09-01T09:13:30.450Z,1.15
2022-09-01T09:16:23.984Z,1.40
2022-09-01T09:18:57.862Z,1.15
2022-09-01T09:21:30.537Z,1.25
2022-09-01T09:24:05.239Z,1.87
2022-09-01T09:26:47.836Z,1.70
2022-09-01T09:29:15.070Z,1.25
2022-09-01T09:31:50.462Z,1.30
2022-09-01T09:34:36.824Z,1.60
2022-09-01T09:37:23.173Z,2.33
2022-09-01T09:40:08.590Z,1.70
2022-09-01T09:42:41.600Z,1.50
2022-09-01T09:45:42.322Z,1.60
2022-09-01T09:48:29.624Z,1.88
2022-09-01T09:50:56.903Z,2.10
2022-09-01T09:53:29.557Z,1.42
2022-09-01T09:55:56.724Z,1.73
2022-09-01T09:58:28.033Z,1.40
2022-09-01T10:01:04.005Z,1.50
2022-09-01T10:03:37.739Z,1.80
2022-09-01T10:06:05.045Z,1.60
2022-09-01T10:08:44.720Z,1.70
2022-09-01T10:11:30.043Z,1.50
2022-09-01T10:14:02.698Z,1.65
2022-09-01T10:16:32.269Z,1.30
2022-09-01T10:19:01.626Z,1.38
2022-09-01T10:21:40.166Z,1.30
2022-09-01T10:24:30.984Z,1.38
2022-09-01T10:27:01.064Z,1.35
2022-09-01T10:29:35.223Z,1.20
2022-09-01T10:32:31.402Z,1.08
2022-09-01T10:34:59.827Z,1.10
2022-09-01T10:37:27.612Z,1.00
2022-09-01T10:40:12.866Z,0.90
2022-09-01T10:42:45.347Z,0.90
2022-09-01T10:45:40.382Z,0.97
2022-09-01T10:48:32.004Z,0.77
2022-09-01T10:51:18.791Z,0.90
2022-09-01T10:53:47.221Z,0.65
2022-09-01T10:56:28.081Z,0.90
2022-09-01T10:59:34.759Z,0.70
2022-09-01T11:04:52.027Z,0.80
2022-09-01T11:07:31.608Z,0.77
2022-09-01T11:10:31.843Z,0.88
2022-09-01T11:13:06.151Z,0.63
2022-09-01T11:18:00.463Z,0.70
2022-09-01T11:20:29.106Z,0.52
2022-09-01T11:23:05.527Z,0.52
2022-09-01T11:25:39.670Z,0.55
2022-09-01T11:28:09.183Z,0.63
2022-09-01T11:30:55.116Z,0.60
2022-09-01T11:33:34.480Z,0.50
2022-09-01T11:36:07.027Z,0.70
2022-09-01T11:38:51.378Z,0.95
2022-09-01T11:41:26.659Z,0.70
2022-09-01T11:43:55.511Z,0.63
2022-09-01T11:46:24.245Z,0.63
2022-09-01T11:48:52.104Z,0.55
2022-09-01T11:51:21.326Z,0.80
2022-09-01T11:53:48.476Z,0.80
2022-09-01T11:56:20.389Z,0.68
2022-09-01T11:58:47.624Z,0.50
2022-09-01T12:01:21.396Z,0.40
2022-09-01T12:03:51.965Z,0.50
2022-09-01T12:06:21.474Z,0.77
2022-09-01T12:08:56.495Z,0.50
2022-09-01T12:11:31.727Z,0.85
2022-09-01T12:14:00.982Z,0.75
2022-09-01T12:16:28.666Z,0.65
2022-09-01T12:18:56.739Z,0.70
2022-09-01T12:21:25.964Z,0.70
2022-09-01T12:23:53.316Z,0.60
2022-09-01T12:26:30.684Z,0.55
2022-09-01T12:28:57.949Z,0.63
2022-09-01T12:31:26.500Z,0.80
2022-09-01T12:33:55.342Z,0.70
2022-09-01T12:36:22.495Z,0.75
2022-09-01T12:38:49.694Z,0.80
2022-09-01T12:41:28.937Z,0.90
2022-09-01T12:43:56.477Z,0.80
2022-09-01T12:46:43.968Z,0.82
2022-09-01T12:49:25.123Z,0.80
2022-09-01T12:52:12.048Z,0.82
2022-09-01T12:54:41.627Z,0.60
2022-09-01T12:57:09.005Z,0.75
2022-09-01T12:59:37.567Z,0.80
2022-09-01T13:02:23.957Z,1.10
2022-09-01T13:04:51.176Z,0.80
2022-09-01T13:07:18.287Z,0.70
2022-09-01T13:09:45.928Z,0.65
2022-09-01T13:12:17.843Z,0.68
2022-09-01T13:14:45.009Z,0.90
2022-09-01T13:17:14.260Z,0.80
2022-09-01T13:19:42.250Z,0.77
2022-09-01T13:22:09.478Z,0.90
2022-09-01T13:24:36.822Z,1.00
2022-09-01T13:29:51.356Z,0.65
2022-09-01T13:32:20.941Z,0.90
2022-09-01T13:34:50.762Z,0.70
2022-09-01T13:37:19.202Z,1.10
2022-09-01T13:39:47.227Z,0.95
2022-09-01T13:42:14.887Z,0.80
2022-09-01T13:44:44.126Z,0.70
2022-09-01T13:50:08.982Z,0.60
2022-09-01T13:52:39.105Z,0.77
2022-09-01T13:55:07.321Z,0.80
2022-09-01T13:57:36.619Z,0.82
2022-09-01T14:00:06.461Z,0.80
2022-09-01T14:02:35.330Z,0.85
2022-09-01T14:05:02.481Z,0.68
2022-09-01T14:07:31.878Z,0.60
2022-09-01T14:09:59.085Z,0.80
2022-09-01T14:12:26.398Z,0.88
2022-09-01T14:17:40.779Z,0.70
2022-09-01T14:20:09.680Z,1.13
2022-09-01T14:22:38.597Z,0.73
2022-09-01T14:25:06.461Z,0.77
2022-09-01T14:27:33.560Z,0.55
2022-09-01T14:30:01.039Z,0.65
2022-09-01T14:32:29.537Z,0.90
2022-09-01T14:34:57.487Z,0.50
2022-09-01T14:37:24.642Z,0.70
2022-09-01T14:39:52.579Z,0.93
2022-09-01T14:42:19.954Z,0.90
2022-09-01T14:44:47.899Z,0.90
2022-09-01T14:47:19.766Z,0.75
2022-09-01T14:49:48.152Z,0.73
2022-09-01T14:52:16.215Z,0.70
2022-09-01T14:54:43.547Z,0.70
2022-09-01T14:59:58.456Z,0.90
2022-09-01T15:02:25.779Z,0.70
2022-09-01T15:04:53.048Z,0.75
2022-09-01T15:07:20.212Z,0.77
2022-09-01T15:09:47.346Z,0.82
2022-09-01T15:12:14.449Z,0.88
2022-09-01T15:14:41.730Z,0.70
2022-09-01T15:17:09.505Z,0.77
2022-09-01T15:19:36.660Z,0.70
2022-09-01T15:22:04.670Z,0.73
2022-09-01T15:24:31.801Z,0.98
2022-09-01T15:26:58.939Z,0.75
2022-09-01T15:29:26.100Z,0.90
2022-09-01T15:31:54.690Z,0.90
2022-09-01T15:34:21.821Z,0.80
2022-09-01T15:36:49.001Z,0.70
2022-09-01T15:39:16.138Z,0.88
2022-09-01T15:41:44.581Z,0.63
2022-09-01T15:44:11.736Z,0.90
2022-09-01T15:46:40.574Z,0.90
2022-09-01T15:49:09.399Z,0.80
2022-09-01T15:51:41.138Z,0.70
2022-09-01T15:54:10.558Z,0.80
2022-09-01T15:56:38.174Z,0.90
2022-09-01T15:59:07.066Z,0.80
2022-09-01T16:01:36.361Z,1.15
2022-09-01T16:04:04.832Z,0.70
2022-09-01T16:06:33.101Z,0.80
2022-09-01T16:09:00.296Z,0.70
2022-09-01T16:11:27.450Z,1.00
2022-09-01T16:13:55.156Z,0.68
2022-09-01T16:16:43.608Z,0.63
2022-09-01T16:19:26.566Z,0.60
2022-09-01T16:22:12.337Z,0.80
2022-09-01T16:24:42.408Z,0.88
2022-09-01T16:27:11.658Z,1.83
2022-09-01T16:29:45.246Z,1.00
2022-09-01T16:32:12.692Z,0.63
2022-09-01T16:34:46.674Z,0.60
2022-09-01T16:37:39.667Z,0.70
2022-09-01T16:40:16.027Z,0.73
2022-09-01T16:42:57.868Z,0.90
2022-09-01T16:45:25.317Z,1.20
2022-09-01T16:47:59.703Z,0.80
2022-09-01T16:50:40.150Z,1.13
2022-09-01T16:53:14.125Z,1.40
2022-09-01T16:56:00.293Z,1.20
2022-09-01T16:58:47.735Z,1.00
2022-09-01T17:01:33.683Z,1.08
2022-09-01T17:04:19.026Z,1.00
2022-09-01T17:06:55.040Z,1.08
2022-09-01T17:09:27.144Z,0.90
2022-09-01T17:11:59.021Z,0.98
2022-09-01T17:14:31.554Z,0.80
2022-09-01T17:17:09.396Z,1.00
2022-09-01T17:19:38.277Z,0.75
2022-09-01T17:22:06.969Z,0.93
2022-09-01T17:24:38.659Z,1.15
2022-09-01T17:27:10.995Z,0.90
2022-09-01T17:29:44.958Z,5.68
2022-09-01T17:32:15.183Z,6.07
2022-09-01T17:34:51.800Z,4.20
2022-09-01T17:37:23.001Z,2.50
2022-09-01T17:40:01.502Z,2.20
2022-09-01T17:42:33.604Z,2.38
2022-09-01T17:45:12.943Z,2.08
2022-09-01T17:47:55.276Z,2.38
2022-09-01T17:50:26.307Z,2.22
2022-09-01T17:52:53.390Z,2.65
2022-09-01T17:55:26.642Z,1.60
2022-09-01T17:57:57.916Z,1.95
2022-09-01T18:00:25.059Z,2.35
2022-09-01T18:03:11.054Z,4.68
2022-09-01T18:05:46.418Z,3.03
2022-09-01T18:08:19.712Z,2.47
2022-09-01T18:10:49.802Z,2.28
2022-09-01T18:13:30.674Z,2.42
2022-09-01T18:16:00.612Z,2.90
2022-09-01T18:18:33.129Z,2.28
2022-09-01T18:21:05.181Z,2.00
2022-09-01T18:23:36.123Z,2.20
2022-09-01T18:26:33.601Z,1.80
2022-09-01T18:29:01.928Z,2.25
2022-09-01T18:31:35.439Z,2.05
2022-09-01T18:34:15.769Z,1.75
2022-09-01T18:36:52.179Z,1.92
2022-09-01T18:39:45.948Z,3.03
2022-09-01T18:42:22.254Z,4.50
2022-09-01T18:45:06.918Z,2.30
2022-09-01T18:47:35.511Z,2.63
2022-09-01T18:50:25.177Z,1.98
2022-09-01T18:52:55.216Z,2.17
2022-09-01T18:55:35.974Z,1.75
2022-09-01T18:58:06.164Z,2.25
2022-09-01T19:00:40.231Z,1.77
2022-09-01T19:03:07.474Z,1.42
2022-09-01T19:05:34.753Z,1.73
2022-09-01T19:08:08.026Z,1.50
2022-09-01T19:10:55.482Z,2.08
2022-09-01T19:13:41.169Z,1.85
2022-09-01T19:16:19.987Z,1.90
2022-09-01T19:19:14.377Z,2.00
2022-09-01T19:21:43.724Z,1.70
2022-09-01T19:24:13.559Z,1.67
2022-09-01T19:26:49.446Z,1.80
2022-09-01T19:29:19.397Z,1.52
2022-09-01T19:31:49.314Z,1.65
2022-09-01T19:34:19.694Z,1.98
2022-09-01T19:36:54.178Z,2.45
2022-09-01T19:39:41.180Z,2.40
2022-09-01T19:42:27.310Z,1.70
2022-09-01T19:45:09.789Z,1.60
2022-09-01T19:47:39.853Z,1.98
2022-09-01T19:50:40.742Z,1.30
2022-09-01T19:53:07.817Z,1.48
2022-09-01T19:55:40.559Z,1.70
2022-09-01T19:58:10.998Z,1.70
2022-09-01T20:00:41.989Z,1.50
2022-09-01T20:03:13.141Z,1.45
2022-09-01T20:05:42.198Z,1.70
2022-09-01T20:08:13.515Z,1.77
2022-09-01T20:10:56.116Z,1.20
2022-09-01T20:13:40.750Z,1.35
2022-09-01T20:18:48.111Z,3.35
2022-09-01T20:21:21.318Z,4.80
2022-09-01T20:23:53.561Z,7.15
2022-09-01T20:26:27.157Z,6.43
2022-09-01T20:31:28.547Z,4.57
2022-09-01T20:34:00.969Z,3.65
2022-09-01T20:36:36.241Z,2.90
2022-09-01T20:39:25.122Z,3.08
2022-09-01T20:42:07.038Z,2.58
2022-09-01T20:44:35.909Z,2.50
2022-09-01T20:47:05.474Z,2.38
2022-09-01T20:49:37.269Z,2.22
2022-09-01T20:52:10.686Z,2.50
2022-09-01T20:54:41.035Z,2.33
2022-09-01T20:57:33.416Z,2.22
2022-09-01T21:00:19.583Z,2.10
2022-09-01T21:02:49.936Z,1.90
2022-09-01T21:05:30.401Z,1.85
2022-09-01T21:08:18.306Z,2.10
2022-09-01T21:10:58.748Z,1.65
2022-09-01T21:13:37.878Z,1.80
2022-09-01T21:16:23.778Z,1.92
2022-09-01T21:18:59.106Z,1.88
2022-09-01T21:21:58.785Z,2.40
2022-09-01T21:24:26.317Z,2.58
2022-09-01T21:26:56.531Z,2.10
2022-09-01T21:29:44.770Z,1.70
2022-09-01T21:32:13.902Z,1.60
2022-09-01T21:34:41.193Z,2.08
2022-09-01T21:37:08.297Z,1.90
2022-09-01T21:39:35.655Z,1.90
2022-09-01T21:42:03.070Z,2.08
2022-09-01T21:44:30.465Z,2.10
2022-09-01T21:47:00.106Z,1.95
2022-09-01T21:49:27.769Z,2.10
2022-09-01T21:51:56.322Z,1.98
2022-09-01T21:54:23.511Z,2.05
2022-09-01T21:56:53.335Z,2.13
2022-09-01T21:59:20.707Z,1.80
2022-09-01T22:01:48.594Z,1.83
2022-09-01T22:04:18.256Z,1.77
2022-09-01T22:06:46.347Z,1.95
2022-09-01T22:09:21.049Z,2.00
2022-09-01T22:11:48.867Z,2.30
2022-09-01T22:14:16.049Z,2.25
2022-09-01T22:16:43.328Z,2.30
2022-09-01T22:19:10.825Z,2.50
2022-09-01T22:21:38.072Z,2.50
2022-09-01T22:24:06.394Z,2.60
2022-09-01T22:26:33.573Z,2.60
2022-09-01T22:29:01.681Z,2.28
2022-09-01T22:31:31.234Z,2.30
2022-09-01T22:33:58.577Z,2.47
2022-09-01T22:36:26.974Z,2.50
2022-09-01T22:38:54.624Z,2.78
2022-09-01T22:41:22.998Z,2.90
2022-09-01T22:43:50.473Z,2.60
2022-09-01T22:46:21.318Z,2.67
2022-09-01T22:48:49.837Z,2.22
2022-09-01T22:51:17.617Z,2.80
2022-09-01T22:53:46.232Z,2.75
2022-09-01T22:56:14.958Z,2.92
2022-09-01T22:58:42.385Z,3.03
2022-09-01T23:01:11.339Z,3.03
2022-09-01T23:03:38.509Z,3.10
2022-09-01T23:06:07.204Z,2.60
2022-09-01T23:08:34.604Z,2.50
2022-09-01T23:11:01.852Z,2.90
2022-09-01T23:13:29.522Z,2.55
2022-09-01T23:15:57.789Z,2.70
2022-09-01T23:18:25.644Z,3.40
2022-09-01T23:20:52.768Z,2.95
2022-09-01T23:23:19.934Z,3.28
2022-09-01T23:25:50.450Z,3.78
2022-09-01T23:28:23.303Z,2.95
2022-09-01T23:30:51.104Z,2.70
2022-09-01T23:33:19.303Z,2.97
2022-09-01T23:35:47.833Z,3.10
2022-09-01T23:38:16.888Z,3.13
2022-09-01T23:40:49.319Z,2.92
2022-09-01T23:43:17.506Z,3.20
2022-09-01T23:45:50.443Z,3.17
2022-09-01T23:48:17.981Z,3.08
2022-09-01T23:50:45.124Z,3.42
2022-09-01T23:53:12.759Z,3.35
2022-09-01T23:55:46.848Z,3.22
2022-09-01T23:58:14.410Z,3.67
